createdAt,value
2024-05-09T00:01:25.369Z,95838.00
2024-05-09T00:02:25.539Z,95835.00
2024-05-09T00:03:25.564Z,95833.00
2024-05-09T00:04:25.671Z,95835.00
2024-05-09T00:05:25.782Z,95833.00
2024-05-09T00:06:25.793Z,95833.00
2024-05-09T00:07:25.892Z,95832.00
2024-05-09T00:08:26.078Z,95833.00
2024-05-09T00:09:26.063Z,95831.00
2024-05-09T00:10:34.594Z,95833.00
2024-05-09T00:11:27.256Z,95831.00
2024-05-09T00:12:26.353Z,95832.00
2024-05-09T00:13:26.197Z,95832.00
2024-05-09T00:14:26.344Z,95833.00
2024-05-09T00:15:26.210Z,95832.00
2024-05-09T00:16:26.219Z,95833.00
2024-05-09T00:17:26.375Z,95832.00
2024-05-09T00:18:26.374Z,95832.00
2024-05-09T00:19:26.341Z,95831.00
2024-05-09T00:20:33.249Z,95832.00
2024-05-09T00:21:27.237Z,95834.00
2024-05-09T00:22:26.256Z,95833.00
2024-05-09T00:23:26.335Z,95835.00
2024-05-09T00:24:26.304Z,95836.00
2024-05-09T00:25:26.287Z,95834.00
2024-05-09T00:26:26.295Z,95835.00
2024-05-09T00:27:26.281Z,95833.00
2024-05-09T00:28:26.269Z,95832.00
2024-05-09T00:29:26.388Z,95835.00
2024-05-09T00:30:33.331Z,95832.00
2024-05-09T00:31:27.377Z,95831.00
2024-05-09T00:32:26.681Z,95830.00
2024-05-09T00:33:26.711Z,95829.00
2024-05-09T00:34:26.502Z,95826.00
2024-05-09T00:35:26.522Z,95824.00
2024-05-09T00:36:26.412Z,95823.00
2024-05-09T00:37:26.396Z,95824.00
2024-05-09T00:38:26.469Z,95823.00
2024-05-09T00:39:26.414Z,95822.00
2024-05-09T00:40:34.497Z,95824.00
2024-05-09T00:41:27.640Z,95820.00
2024-05-09T00:42:26.499Z,95819.00
2024-05-09T00:43:26.471Z,95818.00
2024-05-09T00:44:26.593Z,95819.00
2024-05-09T00:45:26.478Z,95818.00
2024-05-09T00:46:26.489Z,95817.00
2024-05-09T00:47:26.775Z,95816.00
2024-05-09T00:48:26.843Z,95816.00
2024-05-09T00:49:26.732Z,95816.00
2024-05-09T00:50:35.319Z,95814.00
2024-05-09T00:51:27.526Z,95813.00
2024-05-09T00:52:26.527Z,95811.00
2024-05-09T00:53:26.566Z,95810.00
2024-05-09T00:54:26.545Z,95809.00
2024-05-09T00:55:26.589Z,95806.00
2024-05-09T00:56:26.688Z,95803.00
2024-05-09T00:57:26.612Z,95801.00
2024-05-09T00:58:26.583Z,95802.00
2024-05-09T00:59:26.827Z,95799.00
2024-05-09T01:00:34.627Z,95796.00
2024-05-09T01:01:27.614Z,95796.00
2024-05-09T01:02:26.735Z,95794.00
2024-05-09T01:03:26.986Z,95792.00
2024-05-09T01:04:26.648Z,95790.00
2024-05-09T01:05:26.635Z,95789.00
2024-05-09T01:06:26.571Z,95788.00
2024-05-09T01:07:26.571Z,95788.00
2024-05-09T01:08:26.598Z,95788.00
2024-05-09T01:09:26.593Z,95785.00
2024-05-09T01:11:26.739Z,95784.00
2024-05-09T01:12:26.813Z,95785.00
2024-05-09T01:13:26.737Z,95786.00
2024-05-09T01:14:26.919Z,95783.00
2024-05-09T01:15:26.830Z,95787.00
2024-05-09T01:16:26.872Z,95785.00
2024-05-09T01:17:27.002Z,95785.00
2024-05-09T01:18:27.067Z,95784.00
2024-05-09T01:19:27.032Z,95786.00
2024-05-09T01:20:36.948Z,95785.00
2024-05-09T01:21:28.063Z,95786.00
2024-05-09T01:22:27.023Z,95787.00
2024-05-09T01:23:27.042Z,95788.00
2024-05-09T01:24:27.004Z,95787.00
2024-05-09T01:25:27.005Z,95788.00
2024-05-09T01:26:27.066Z,95790.00
2024-05-09T01:27:26.990Z,95791.00
2024-05-09T01:28:26.974Z,95790.00
2024-05-09T01:29:27.048Z,95790.00
2024-05-09T01:30:33.852Z,95791.00
2024-05-09T01:31:27.940Z,95792.00
2024-05-09T01:32:27.096Z,95792.00
2024-05-09T01:33:27.275Z,95793.00
2024-05-09T01:34:26.903Z,95793.00
2024-05-09T01:35:27.029Z,95791.00
2024-05-09T01:36:26.882Z,95791.00
2024-05-09T01:37:26.888Z,95792.00
2024-05-09T01:38:26.922Z,95791.00
2024-05-09T01:39:26.869Z,95792.00
2024-05-09T01:40:36.303Z,95790.00
2024-05-09T01:41:27.886Z,95791.00
2024-05-09T01:42:26.845Z,95791.00
2024-05-09T01:43:26.822Z,95788.00
2024-05-09T01:44:26.822Z,95790.00
2024-05-09T01:45:26.788Z,95787.00
2024-05-09T01:46:26.776Z,95787.00
2024-05-09T01:47:26.995Z,95787.00
2024-05-09T01:48:26.966Z,95785.00
2024-05-09T01:49:26.858Z,95788.00
2024-05-09T01:50:37.378Z,95787.00
2024-05-09T01:51:27.752Z,95788.00
2024-05-09T01:52:26.738Z,95787.00
2024-05-09T01:53:26.756Z,95787.00
2024-05-09T01:54:26.747Z,95788.00
2024-05-09T01:55:26.741Z,95789.00
2024-05-09T01:56:26.746Z,95791.00
2024-05-09T01:57:26.703Z,95789.00
2024-05-09T01:58:26.702Z,95790.00
2024-05-09T01:59:26.782Z,95791.00
2024-05-09T02:00:36.312Z,95788.00
2024-05-09T02:01:27.722Z,95789.00
2024-05-09T02:02:26.705Z,95788.00
2024-05-09T02:03:26.811Z,95788.00
2024-05-09T02:04:26.772Z,95789.00
2024-05-09T02:05:26.694Z,95788.00
2024-05-09T02:06:26.649Z,95788.00
2024-05-09T02:07:26.657Z,95786.00
2024-05-09T02:08:26.689Z,95787.00
2024-05-09T02:09:26.611Z,95787.00
2024-05-09T02:10:32.284Z,95787.00
2024-05-09T02:11:27.672Z,95785.00
2024-05-09T02:12:26.701Z,95788.00
2024-05-09T02:13:26.628Z,95785.00
2024-05-09T02:14:26.852Z,95787.00
2024-05-09T02:15:26.602Z,95785.00
2024-05-09T02:16:26.621Z,95785.00
2024-05-09T02:17:26.862Z,95784.00
2024-05-09T02:18:26.732Z,95784.00
2024-05-09T02:19:26.720Z,95785.00
2024-05-09T02:20:33.517Z,95785.00
2024-05-09T02:21:27.597Z,95786.00
2024-05-09T02:22:26.595Z,95786.00
2024-05-09T02:23:26.605Z,95788.00
2024-05-09T02:24:26.567Z,95785.00
2024-05-09T02:25:26.579Z,95785.00
2024-05-09T02:26:26.638Z,95784.00
2024-05-09T02:27:26.579Z,95785.00
2024-05-09T02:28:26.580Z,95783.00
2024-05-09T02:29:26.679Z,95783.00
2024-05-09T02:30:36.248Z,95782.00
2024-05-09T02:31:27.675Z,95784.00
2024-05-09T02:32:26.804Z,95780.00
2024-05-09T02:33:26.861Z,95779.00
2024-05-09T02:34:26.717Z,95779.00
2024-05-09T02:35:26.851Z,95777.00
2024-05-09T02:36:26.697Z,95777.00
2024-05-09T02:37:26.679Z,95778.00
2024-05-09T02:38:26.770Z,95778.00
2024-05-09T02:39:26.691Z,95776.00
2024-05-09T02:40:35.115Z,95775.00
2024-05-09T02:41:27.782Z,95777.00
2024-05-09T02:42:26.686Z,95775.00
2024-05-09T02:43:26.726Z,95776.00
2024-05-09T02:44:26.820Z,95774.00
2024-05-09T02:45:26.706Z,95776.00
2024-05-09T02:46:26.712Z,95775.00
2024-05-09T02:47:26.842Z,95776.00
2024-05-09T02:48:26.844Z,95776.00
2024-05-09T02:49:26.813Z,95774.00
2024-05-09T02:50:34.363Z,95777.00
2024-05-09T02:51:27.754Z,95777.00
2024-05-09T02:52:26.789Z,95775.00
2024-05-09T02:53:26.830Z,95777.00
2024-05-09T02:54:26.750Z,95777.00
2024-05-09T02:55:26.790Z,95777.00
2024-05-09T02:56:26.852Z,95778.00
2024-05-09T02:57:26.816Z,95777.00
2024-05-09T02:58:26.826Z,95778.00
2024-05-09T02:59:26.906Z,95777.00
2024-05-09T03:00:35.161Z,95777.00
2024-05-09T03:01:27.891Z,95775.00
2024-05-09T03:02:26.912Z,95778.00
2024-05-09T03:03:27.507Z,95776.00
2024-05-09T03:04:27.459Z,95776.00
2024-05-09T03:05:26.879Z,95773.00
2024-05-09T03:06:26.845Z,95775.00
2024-05-09T03:07:26.872Z,95774.00
2024-05-09T03:08:26.982Z,95776.00
2024-05-09T03:09:26.831Z,95773.00
2024-05-09T03:11:27.040Z,95772.00
2024-05-09T03:12:27.106Z,95772.00
2024-05-09T03:13:27.204Z,95771.00
2024-05-09T03:14:27.195Z,95773.00
2024-05-09T03:15:27.158Z,95772.00
2024-05-09T03:16:27.193Z,95772.00
2024-05-09T03:17:27.425Z,95774.00
2024-05-09T03:18:27.460Z,95773.00
2024-05-09T03:19:27.598Z,95776.00
2024-05-09T03:20:32.978Z,95777.00
2024-05-09T03:21:28.563Z,95777.00
2024-05-09T03:22:27.582Z,95776.00
2024-05-09T03:23:27.603Z,95776.00
2024-05-09T03:24:27.560Z,95781.00
2024-05-09T03:25:27.554Z,95779.00
2024-05-09T03:26:27.674Z,95780.00
2024-05-09T03:27:27.580Z,95780.00
2024-05-09T03:28:27.595Z,95781.00
2024-05-09T03:29:27.691Z,95781.00
2024-05-09T03:30:36.028Z,95781.00
2024-05-09T03:31:28.596Z,95780.00
2024-05-09T03:32:27.837Z,95779.00
2024-05-09T03:33:27.779Z,95778.00
2024-05-09T03:34:27.648Z,95778.00
2024-05-09T03:35:27.667Z,95779.00
2024-05-09T03:36:27.630Z,95777.00
2024-05-09T03:37:27.623Z,95778.00
2024-05-09T03:38:27.730Z,95779.00
2024-05-09T03:39:27.621Z,95781.00
2024-05-09T03:40:30.845Z,95779.00
2024-05-09T03:41:27.688Z,95780.00
2024-05-09T03:42:27.664Z,95780.00
2024-05-09T03:43:27.654Z,95780.00
2024-05-09T03:44:27.711Z,95780.00
2024-05-09T03:45:27.640Z,95779.00
2024-05-09T03:46:27.660Z,95779.00
2024-05-09T03:47:27.973Z,95779.00
2024-05-09T03:48:27.826Z,95778.00
2024-05-09T03:49:27.751Z,95778.00
2024-05-09T03:50:33.703Z,95779.00
2024-05-09T03:51:28.686Z,95779.00
2024-05-09T03:52:27.720Z,95781.00
2024-05-09T03:53:27.786Z,95782.00
2024-05-09T03:54:27.713Z,95784.00
2024-05-09T03:55:27.680Z,95786.00
2024-05-09T03:56:27.793Z,95788.00
2024-05-09T03:57:27.689Z,95789.00
2024-05-09T03:58:27.698Z,95792.00
2024-05-09T03:59:27.843Z,95791.00
2024-05-09T04:00:35.248Z,95791.00
2024-05-09T04:01:28.765Z,95793.00
2024-05-09T04:02:27.770Z,95796.00
2024-05-09T04:03:27.932Z,95795.00
2024-05-09T04:04:27.724Z,95794.00
2024-05-09T04:05:27.735Z,95796.00
2024-05-09T04:06:27.723Z,95796.00
2024-05-09T04:07:27.697Z,95798.00
2024-05-09T04:08:27.706Z,95800.00
2024-05-09T04:09:27.709Z,95802.00
2024-05-09T04:10:32.807Z,95800.00
2024-05-09T04:11:28.838Z,95802.00
2024-05-09T04:12:27.867Z,95803.00
2024-05-09T04:13:35.015Z,95803.00
2024-05-09T04:14:35.058Z,95801.00
2024-05-09T04:15:35.018Z,95801.00
2024-05-09T04:16:34.997Z,95800.00
2024-05-09T04:17:35.134Z,95802.00
2024-05-09T04:18:35.095Z,95802.00
2024-05-09T04:19:35.051Z,95801.00
2024-05-09T04:20:39.026Z,95801.00
2024-05-09T04:21:36.010Z,95802.00
2024-05-09T04:22:35.213Z,95801.00
2024-05-09T04:23:35.142Z,95801.00
2024-05-09T04:24:35.044Z,95800.00
2024-05-09T04:25:35.094Z,95801.00
2024-05-09T04:26:35.135Z,95802.00
2024-05-09T04:27:35.066Z,95805.00
2024-05-09T04:28:35.028Z,95807.00
2024-05-09T04:29:35.073Z,95807.00
2024-05-09T04:30:39.205Z,95806.00
2024-05-09T04:31:47.205Z,95809.00
2024-05-09T04:32:47.304Z,95810.00
2024-05-09T04:33:47.259Z,95808.00
2024-05-09T04:34:47.228Z,95810.00
2024-05-09T04:35:47.202Z,95811.00
2024-05-09T04:36:47.145Z,95811.00
2024-05-09T04:37:47.180Z,95808.00
2024-05-09T04:38:47.201Z,95808.00
2024-05-09T04:39:47.257Z,95809.00
2024-05-09T04:40:47.369Z,95810.00
2024-05-09T04:41:47.456Z,95807.00
2024-05-09T04:42:47.524Z,95808.00
2024-05-09T04:43:47.607Z,95807.00
2024-05-09T04:44:47.703Z,95807.00
2024-05-09T04:45:47.790Z,95808.00
2024-05-09T04:46:47.964Z,95813.00
2024-05-09T04:47:48.318Z,95812.00
2024-05-09T04:48:48.224Z,95812.00
2024-05-09T04:49:48.245Z,95810.00
2024-05-09T04:50:48.376Z,95812.00
2024-05-09T04:51:48.402Z,95818.00
2024-05-09T04:52:48.537Z,95820.00
2024-05-09T04:53:48.706Z,95820.00
2024-05-09T04:54:48.718Z,95821.00
2024-05-09T04:55:48.832Z,95821.00
2024-05-09T04:56:48.899Z,95824.00
2024-05-09T04:57:49.002Z,95823.00
2024-05-09T04:58:49.102Z,95822.00
2024-05-09T04:59:49.178Z,95821.00
2024-05-09T05:00:49.307Z,95822.00
2024-05-09T05:01:49.606Z,95824.00
2024-05-09T05:02:49.592Z,95824.00
2024-05-09T05:03:49.808Z,95825.00
2024-05-09T05:04:49.974Z,95824.00
2024-05-09T05:05:49.859Z,95825.00
2024-05-09T05:06:49.882Z,95825.00
2024-05-09T05:07:49.998Z,95825.00
2024-05-09T05:08:50.022Z,95822.00
2024-05-09T05:09:50.119Z,95821.00
2024-05-09T05:10:50.400Z,95823.00
2024-05-09T05:11:50.388Z,95822.00
2024-05-09T05:12:50.392Z,95821.00
2024-05-09T05:13:50.501Z,95819.00
2024-05-09T05:14:50.547Z,95821.00
2024-05-09T05:15:50.666Z,95823.00
2024-05-09T05:16:50.761Z,95823.00
2024-05-09T05:17:50.976Z,95824.00
2024-05-09T05:18:50.980Z,95825.00
2024-05-09T05:19:51.134Z,95827.00
2024-05-09T05:20:51.394Z,95827.00
2024-05-09T05:21:51.107Z,95829.00
2024-05-09T05:22:51.226Z,95826.00
2024-05-09T05:23:51.194Z,95828.00
2024-05-09T05:24:51.272Z,95827.00
2024-05-09T05:25:51.388Z,95827.00
2024-05-09T05:26:51.330Z,95829.00
2024-05-09T05:27:51.375Z,95826.00
2024-05-09T05:28:51.451Z,95827.00
2024-05-09T05:29:51.483Z,95828.00
2024-05-09T05:30:51.535Z,95827.00
2024-05-09T05:32:28.001Z,95832.00
2024-05-09T05:33:28.160Z,95832.00
2024-05-09T05:34:27.869Z,95831.00
2024-05-09T05:35:28.030Z,95833.00
2024-05-09T05:36:27.877Z,95835.00
2024-05-09T05:37:27.862Z,95834.00
2024-05-09T05:38:28.619Z,95834.00
2024-05-09T05:39:27.847Z,95836.00
2024-05-09T05:40:35.016Z,95837.00
2024-05-09T05:41:28.988Z,95833.00
2024-05-09T05:42:27.825Z,95836.00
2024-05-09T05:43:27.815Z,95836.00
2024-05-09T05:44:27.959Z,95838.00
2024-05-09T05:45:27.788Z,95839.00
2024-05-09T05:46:27.785Z,95837.00
2024-05-09T05:47:27.947Z,95837.00
2024-05-09T05:48:27.865Z,95838.00
2024-05-09T05:49:27.817Z,95839.00
2024-05-09T05:50:34.951Z,95839.00
2024-05-09T05:51:28.747Z,95839.00
2024-05-09T05:52:27.739Z,95838.00
2024-05-09T05:53:27.759Z,95837.00
2024-05-09T05:54:27.730Z,95838.00
2024-05-09T05:55:27.694Z,95835.00
2024-05-09T05:56:27.796Z,95836.00
2024-05-09T05:57:27.808Z,95837.00
2024-05-09T05:58:27.650Z,95838.00
2024-05-09T05:59:27.663Z,95836.00
2024-05-09T06:00:34.447Z,95837.00
2024-05-09T06:01:28.681Z,95835.00
2024-05-09T06:02:27.696Z,95834.00
2024-05-09T06:03:27.654Z,95833.00
2024-05-09T06:04:27.678Z,95831.00
2024-05-09T06:05:27.890Z,95831.00
2024-05-09T06:06:27.602Z,95827.00
2024-05-09T06:07:27.606Z,95827.00
2024-05-09T06:08:30.269Z,95828.00
2024-05-09T06:09:27.581Z,95830.00
2024-05-09T06:10:35.094Z,95831.00
2024-05-09T06:11:28.666Z,95832.00
2024-05-09T06:12:27.631Z,95830.00
2024-05-09T06:13:27.540Z,95828.00
2024-05-09T06:14:27.714Z,95829.00
2024-05-09T06:15:27.523Z,95829.00
2024-05-09T06:16:27.559Z,95829.00
2024-05-09T06:17:27.634Z,95828.00
2024-05-09T06:18:27.667Z,95828.00
2024-05-09T06:19:27.596Z,95828.00
2024-05-09T06:20:34.951Z,95830.00
2024-05-09T06:21:28.572Z,95827.00
2024-05-09T06:22:27.524Z,95825.00
2024-05-09T06:23:28.075Z,95825.00
2024-05-09T06:24:27.507Z,95826.00
2024-05-09T06:25:27.480Z,95825.00
2024-05-09T06:26:27.506Z,95826.00
2024-05-09T06:27:27.486Z,95826.00
2024-05-09T06:28:27.507Z,95826.00
2024-05-09T06:29:27.715Z,95825.00
2024-05-09T06:30:36.587Z,95825.00
2024-05-09T06:31:28.448Z,95823.00
2024-05-09T06:32:27.563Z,95823.00
2024-05-09T06:33:27.678Z,95824.00
2024-05-09T06:34:27.535Z,95824.00
2024-05-09T06:35:27.553Z,95826.00
2024-05-09T06:36:27.460Z,95824.00
2024-05-09T06:37:27.460Z,95821.00
2024-05-09T06:38:27.680Z,95823.00
2024-05-09T06:39:27.480Z,95820.00
2024-05-09T06:40:35.781Z,95818.00
2024-05-09T06:41:28.559Z,95820.00
2024-05-09T06:42:27.516Z,95817.00
2024-05-09T06:43:27.522Z,95819.00
2024-05-09T06:44:27.701Z,95816.00
2024-05-09T06:45:27.519Z,95817.00
2024-05-09T06:46:27.521Z,95818.00
2024-05-09T06:47:27.617Z,95818.00
2024-05-09T06:48:27.693Z,95820.00
2024-05-09T06:49:27.621Z,95820.00
2024-05-09T06:50:31.220Z,95822.00
2024-05-09T06:51:28.581Z,95824.00
2024-05-09T06:52:27.566Z,95826.00
2024-05-09T06:53:27.597Z,95825.00
2024-05-09T06:54:27.587Z,95825.00
2024-05-09T06:55:27.613Z,95824.00
2024-05-09T06:56:27.625Z,95824.00
2024-05-09T06:57:27.602Z,95825.00
2024-05-09T06:58:27.624Z,95824.00
2024-05-09T06:59:27.656Z,95822.00
2024-05-09T07:00:35.480Z,95820.00
2024-05-09T07:01:28.837Z,95820.00
2024-05-09T07:02:28.627Z,95820.00
2024-05-09T07:03:27.863Z,95819.00
2024-05-09T07:04:27.774Z,95820.00
2024-05-09T07:05:28.656Z,95821.00
2024-05-09T07:06:27.691Z,95823.00
2024-05-09T07:07:27.700Z,95823.00
2024-05-09T07:08:27.791Z,95825.00
2024-05-09T07:09:27.715Z,95827.00
2024-05-09T07:10:32.916Z,95828.00
2024-05-09T07:11:28.780Z,95825.00
2024-05-09T07:12:27.794Z,95823.00
2024-05-09T07:13:27.742Z,95824.00
2024-05-09T07:14:27.784Z,95824.00
2024-05-09T07:15:27.718Z,95822.00
2024-05-09T07:16:27.747Z,95823.00
2024-05-09T07:17:27.925Z,95820.00
2024-05-09T07:18:28.056Z,95821.00
2024-05-09T07:19:27.977Z,95821.00
2024-05-09T07:20:34.116Z,95818.00
2024-05-09T07:21:28.761Z,95817.00
2024-05-09T07:22:27.765Z,95816.00
2024-05-09T07:23:27.817Z,95813.00
2024-05-09T07:24:27.785Z,95812.00
2024-05-09T07:25:27.787Z,95811.00
2024-05-09T07:26:27.896Z,95809.00
2024-05-09T07:27:27.790Z,95809.00
2024-05-09T07:28:27.792Z,95806.00
2024-05-09T07:29:27.958Z,95806.00
2024-05-09T07:30:33.230Z,95808.00
2024-05-09T07:31:28.816Z,95807.00
2024-05-09T07:32:27.994Z,95807.00
2024-05-09T07:33:27.898Z,95808.00
2024-05-09T07:34:27.922Z,95806.00
2024-05-09T07:35:28.045Z,95807.00
2024-05-09T07:36:27.824Z,95809.00
2024-05-09T07:37:27.843Z,95807.00
2024-05-09T07:38:27.863Z,95810.00
2024-05-09T07:39:27.811Z,95810.00
2024-05-09T07:40:34.590Z,95810.00
2024-05-09T07:41:28.926Z,95810.00
2024-05-09T07:42:27.832Z,95808.00
2024-05-09T07:43:27.847Z,95809.00
2024-05-09T07:44:27.953Z,95805.00
2024-05-09T07:45:44.964Z,95806.00
2024-05-09T07:47:36.814Z,95803.00
2024-05-09T07:48:57.151Z,95802.00
2024-05-09T07:50:01.059Z,95800.00
2024-05-09T07:53:32.389Z,95798.00
2024-05-09T07:53:39.981Z,95796.00
2024-05-09T07:54:28.941Z,95799.00
2024-05-09T07:55:28.029Z,95798.00
2024-05-09T07:56:28.218Z,95798.00
2024-05-09T07:57:27.862Z,95795.00
2024-05-09T07:58:28.039Z,95798.00
2024-05-09T07:59:27.814Z,95799.00
2024-05-09T08:00:31.471Z,95797.00
2024-05-09T08:01:27.935Z,95797.00
2024-05-09T08:02:27.960Z,95796.00
2024-05-09T08:03:27.915Z,95796.00
2024-05-09T08:04:27.789Z,95794.00
2024-05-09T08:05:27.906Z,95796.00
2024-05-09T08:06:27.766Z,95797.00
2024-05-09T08:07:27.691Z,95795.00
2024-05-09T08:08:27.691Z,95796.00
2024-05-09T08:09:27.743Z,95794.00
2024-05-09T08:10:29.168Z,95792.00
2024-05-09T08:11:27.664Z,95791.00
2024-05-09T08:12:27.636Z,95793.00
2024-05-09T08:13:27.626Z,95791.00
2024-05-09T08:14:27.569Z,95788.00
2024-05-09T08:15:27.642Z,95787.00
2024-05-09T08:16:27.725Z,95790.00
2024-05-09T08:17:27.624Z,95786.00
2024-05-09T08:18:27.677Z,95787.00
2024-05-09T08:19:27.579Z,95788.00
2024-05-09T08:20:33.411Z,95787.00
2024-05-09T08:21:28.511Z,95788.00
2024-05-09T08:22:27.458Z,95786.00
2024-05-09T08:23:27.465Z,95785.00
2024-05-09T08:24:28.087Z,95782.00
2024-05-09T08:25:27.519Z,95784.00
2024-05-09T08:26:27.415Z,95785.00
2024-05-09T08:27:27.437Z,95782.00
2024-05-09T08:28:27.455Z,95782.00
2024-05-09T08:29:27.390Z,95782.00
2024-05-09T08:30:33.659Z,95781.00
2024-05-09T08:31:28.570Z,95777.00
2024-05-09T08:32:27.560Z,95775.00
2024-05-09T08:33:27.633Z,95776.00
2024-05-09T08:34:27.528Z,95774.00
2024-05-09T08:35:27.376Z,95776.00
2024-05-09T08:36:27.420Z,95773.00
2024-05-09T08:37:31.093Z,95775.00
2024-05-09T08:38:28.361Z,95778.00
2024-05-09T08:39:27.354Z,95779.00
2024-05-09T08:40:33.605Z,95778.00
2024-05-09T08:41:28.325Z,95780.00
2024-05-09T08:42:27.293Z,95779.00
2024-05-09T08:43:27.334Z,95777.00
2024-05-09T08:44:27.262Z,95779.00
2024-05-09T08:45:27.332Z,95777.00
2024-05-09T08:46:27.381Z,95776.00
2024-05-09T08:47:27.361Z,95776.00
2024-05-09T08:48:27.379Z,95774.00
2024-05-09T08:49:27.294Z,95772.00
2024-05-09T08:50:35.608Z,95772.00
2024-05-09T08:51:28.283Z,95770.00
2024-05-09T08:52:27.174Z,95770.00
2024-05-09T08:53:27.163Z,95773.00
2024-05-09T08:54:27.201Z,95775.00
2024-05-09T08:55:27.134Z,95770.00
2024-05-09T08:56:27.124Z,95770.00
2024-05-09T08:57:27.209Z,95770.00
2024-05-09T08:58:27.131Z,95770.00
2024-05-09T08:59:27.115Z,95769.00
2024-05-09T09:00:34.138Z,95769.00
2024-05-09T09:01:28.171Z,95770.00
2024-05-09T09:02:27.168Z,95770.00
2024-05-09T09:03:27.194Z,95769.00
2024-05-09T09:04:27.112Z,95766.00
2024-05-09T09:05:27.291Z,95765.00
2024-05-09T09:06:27.147Z,95765.00
2024-05-09T09:07:27.159Z,95765.00
2024-05-09T09:08:26.966Z,95765.00
2024-05-09T09:09:27.071Z,95763.00
2024-05-09T09:10:31.994Z,95759.00
2024-05-09T09:11:27.975Z,95758.00
2024-05-09T09:12:26.951Z,95760.00
2024-05-09T09:13:26.910Z,95758.00
2024-05-09T09:14:26.886Z,95758.00
2024-05-09T09:15:27.006Z,95758.00
2024-05-09T09:16:26.922Z,95759.00
2024-05-09T09:17:26.930Z,95756.00
2024-05-09T09:18:27.327Z,95754.00
2024-05-09T09:19:26.976Z,95753.00
2024-05-09T09:20:33.984Z,95749.00
2024-05-09T09:21:27.811Z,95754.00
2024-05-09T09:22:26.801Z,95752.00
2024-05-09T09:23:26.744Z,95752.00
2024-05-09T09:24:26.808Z,95752.00
2024-05-09T09:25:26.733Z,95750.00
2024-05-09T09:26:26.711Z,95745.00
2024-05-09T09:27:26.738Z,95745.00
2024-05-09T09:28:26.690Z,95747.00
2024-05-09T09:29:26.678Z,95743.00
2024-05-09T09:30:35.360Z,95742.00
2024-05-09T09:31:27.828Z,95745.00
2024-05-09T09:32:26.752Z,95745.00
2024-05-09T09:33:26.760Z,95748.00
2024-05-09T09:34:26.735Z,95744.00
2024-05-09T09:35:26.648Z,95744.00
2024-05-09T09:36:26.646Z,95740.00
2024-05-09T09:37:26.628Z,95745.00
2024-05-09T09:38:26.591Z,95743.00
2024-05-09T09:39:26.574Z,95738.00
2024-05-09T09:40:31.967Z,95734.00
2024-05-09T09:41:27.611Z,95736.00
2024-05-09T09:42:26.607Z,95733.00
2024-05-09T09:43:26.668Z,95733.00
2024-05-09T09:44:26.555Z,95726.00
2024-05-09T09:45:26.578Z,95723.00
2024-05-09T09:46:26.708Z,95721.00
2024-05-09T09:47:26.593Z,95719.00
2024-05-09T09:48:26.572Z,95720.00
2024-05-09T09:49:26.539Z,95721.00
2024-05-09T09:50:33.505Z,95722.00
2024-05-09T09:51:27.590Z,95720.00
2024-05-09T09:52:26.517Z,95720.00
2024-05-09T09:53:26.441Z,95715.00
2024-05-09T09:54:26.436Z,95716.00
2024-05-09T09:55:26.450Z,95715.00
2024-05-09T09:56:26.371Z,95717.00
2024-05-09T09:57:26.370Z,95715.00
2024-05-09T09:58:26.668Z,95717.00
2024-05-09T09:59:26.307Z,95714.00
2024-05-09T10:00:30.698Z,95716.00
2024-05-09T10:01:27.416Z,95715.00
2024-05-09T10:02:26.398Z,95713.00
2024-05-09T10:03:26.397Z,95710.00
2024-05-09T10:04:26.353Z,95711.00
2024-05-09T10:05:26.578Z,95708.00
2024-05-09T10:06:26.224Z,95704.00
2024-05-09T10:07:26.236Z,95700.00
2024-05-09T10:08:26.180Z,95701.00
2024-05-09T10:09:26.173Z,95701.00
2024-05-09T10:10:32.154Z,95698.00
2024-05-09T10:11:27.307Z,95696.00
2024-05-09T10:12:26.238Z,95695.00
2024-05-09T10:13:26.337Z,95693.00
2024-05-09T10:14:26.168Z,95689.00
2024-05-09T10:15:26.149Z,95690.00
2024-05-09T10:16:26.186Z,95684.00
2024-05-09T10:17:26.179Z,95683.00
2024-05-09T10:18:29.217Z,95684.00
2024-05-09T10:19:27.178Z,95677.00
2024-05-09T10:20:30.848Z,95677.00
2024-05-09T10:21:27.077Z,95675.00
2024-05-09T10:22:26.119Z,95677.00
2024-05-09T10:23:26.014Z,95676.00
2024-05-09T10:24:25.991Z,95675.00
2024-05-09T10:25:26.006Z,95675.00
2024-05-09T10:26:25.972Z,95676.00
2024-05-09T10:27:25.957Z,95672.00
2024-05-09T10:28:25.964Z,95670.00
2024-05-09T10:29:25.930Z,95670.00
2024-05-09T10:30:33.672Z,95671.00
2024-05-09T10:31:27.004Z,95669.00
2024-05-09T10:32:26.010Z,95667.00
2024-05-09T10:33:26.022Z,95668.00
2024-05-09T10:34:26.256Z,95671.00
2024-05-09T10:35:25.913Z,95668.00
2024-05-09T10:36:25.897Z,95668.00
2024-05-09T10:37:25.932Z,95669.00
2024-05-09T10:38:25.863Z,95666.00
2024-05-09T10:39:25.921Z,95664.00
2024-05-09T10:40:31.056Z,95663.00
2024-05-09T10:41:26.896Z,95662.00
2024-05-09T10:42:25.887Z,95661.00
2024-05-09T10:43:25.898Z,95661.00
2024-05-09T10:44:25.803Z,95656.00
2024-05-09T10:45:25.820Z,95658.00
2024-05-09T10:46:25.839Z,95655.00
2024-05-09T10:47:25.870Z,95655.00
2024-05-09T10:48:25.847Z,95654.00
2024-05-09T10:49:25.930Z,95653.00
2024-05-09T10:50:29.103Z,95652.00
2024-05-09T10:51:26.827Z,95652.00
2024-05-09T10:52:25.795Z,95651.00
2024-05-09T10:53:25.778Z,95648.00
2024-05-09T10:54:25.759Z,95648.00
2024-05-09T10:55:25.899Z,95646.00
2024-05-09T10:56:25.727Z,95644.00
2024-05-09T10:57:25.703Z,95639.00
2024-05-09T10:58:25.686Z,95642.00
2024-05-09T10:59:25.710Z,95636.00
2024-05-09T11:00:33.084Z,95637.00
2024-05-09T11:01:26.792Z,95634.00
2024-05-09T11:02:25.876Z,95632.00
2024-05-09T11:03:25.859Z,95634.00
2024-05-09T11:04:25.720Z,95634.00
2024-05-09T11:05:25.758Z,95630.00
2024-05-09T11:06:25.658Z,95628.00
2024-05-09T11:07:25.665Z,95627.00
2024-05-09T11:08:25.598Z,95626.00
2024-05-09T11:09:25.581Z,95625.00
2024-05-09T11:10:33.330Z,95625.00
2024-05-09T11:11:26.666Z,95626.00
2024-05-09T11:12:25.642Z,95622.00
2024-05-09T11:13:25.646Z,95619.00
2024-05-09T11:14:25.592Z,95620.00
2024-05-09T11:15:25.564Z,95622.00
2024-05-09T11:16:25.595Z,95623.00
2024-05-09T11:17:25.682Z,95622.00
2024-05-09T11:18:26.728Z,95623.00
2024-05-09T11:19:25.732Z,95622.00
2024-05-09T11:20:29.695Z,95619.00
2024-05-09T11:21:25.532Z,95615.00
2024-05-09T11:22:25.610Z,95617.00
2024-05-09T11:23:25.482Z,95612.00
2024-05-09T11:24:25.477Z,95612.00
2024-05-09T11:25:25.573Z,95611.00
2024-05-09T11:26:25.568Z,95608.00
2024-05-09T11:27:25.415Z,95608.00
2024-05-09T11:28:25.455Z,95610.00
2024-05-09T11:29:25.375Z,95604.00
2024-05-09T11:30:30.172Z,95608.00
2024-05-09T11:31:26.504Z,95607.00
2024-05-09T11:32:25.549Z,95607.00
2024-05-09T11:33:25.343Z,95603.00
2024-05-09T11:34:25.388Z,95603.00
2024-05-09T11:35:25.243Z,95602.00
2024-05-09T11:36:25.291Z,95602.00
2024-05-09T11:37:25.322Z,95597.00
2024-05-09T11:38:25.245Z,95598.00
2024-05-09T11:39:25.279Z,95599.00
2024-05-09T11:40:28.643Z,95596.00
2024-05-09T11:41:26.190Z,95597.00
2024-05-09T11:42:25.176Z,95595.00
2024-05-09T11:43:25.182Z,95595.00
2024-05-09T11:44:25.111Z,95595.00
2024-05-09T11:45:25.106Z,95590.00
2024-05-09T11:46:25.142Z,95586.00
2024-05-09T11:47:25.228Z,95585.00
2024-05-09T11:48:25.471Z,95586.00
2024-05-09T11:49:27.029Z,95581.00
2024-05-09T11:50:29.979Z,95579.00
2024-05-09T11:51:26.036Z,95583.00